Time;durP1;ratioP1;P1;durP2;ratioP2;P2;SDS_P1;SDS_P2;PMS_P1;PMS_P2;Temp;Humidity;BMP_temperature;BMP_pressure;BME280_temperature;BME280_humidity;BME280_pressure;Samples;Min_cycle;Max_cycle;Signal;HPM_P1;HPM_P2
2021/08/23 00:02:11;;;;;;;0.35;0.35;;;17.80;99.90;;;;;;4414298;32;20070;-64
2021/08/23 00:04:36;;;;;;;0.75;0.62;;;17.90;99.90;;;;;;4414949;32;20441;-64
2021/08/23 00:07:03;;;;;;;0.47;0.47;;;17.90;99.90;;;;;;4414762;32;20057;-64
2021/08/23 00:09:30;;;;;;;0.57;0.50;;;17.90;99.90;;;;;;4414791;32;20120;-64
2021/08/23 00:11:56;;;;;;;0.30;0.30;;;17.90;99.90;;;;;;4416408;32;20414;-65
2021/08/23 00:14:21;;;;;;;0.50;0.50;;;17.90;99.90;;;;;;4415873;32;20074;-64
2021/08/23 00:16:47;;;;;;;0.50;0.50;;;17.90;99.90;;;;;;4413883;32;20065;-66
2021/08/23 00:19:12;;;;;;;0.60;0.60;;;17.90;99.90;;;;;;4414605;32;20498;-65
2021/08/23 00:21:43;;;;;;;1.27;0.68;;;17.90;99.90;;;;;;4416392;32;20121;-63
2021/08/23 00:24:24;;;;;;;0.77;0.50;;;17.90;99.90;;;;;;4414543;32;20061;-64
2021/08/23 00:26:53;;;;;;;0.50;0.50;;;17.90;99.90;;;;;;4403107;32;20061;-66
2021/08/23 00:29:19;;;;;;;2.08;0.80;;;17.90;99.90;;;;;;4401168;32;20086;-65
2021/08/23 00:31:45;;;;;;;1.27;0.70;;;17.90;99.90;;;;;;4414481;32;20081;-65
2021/08/23 00:34:10;;;;;;;0.47;0.47;;;18.00;99.90;;;;;;4401244;32;20121;-64
2021/08/23 00:36:36;;;;;;;1.02;0.62;;;18.00;99.90;;;;;;4415619;32;20519;-65
2021/08/23 00:39:03;;;;;;;0.50;0.50;;;18.00;99.90;;;;;;4416345;32;20066;-65
2021/08/23 00:41:31;;;;;;;0.60;0.60;;;18.00;99.90;;;;;;4402035;32;20069;-65
2021/08/23 00:43:57;;;;;;;0.50;0.50;;;18.00;99.90;;;;;;4400959;32;20074;-64
2021/08/23 00:46:23;;;;;;;1.00;0.77;;;18.00;99.90;;;;;;4400344;32;20417;-66
2021/08/23 00:48:49;;;;;;;0.75;0.75;;;18.00;99.90;;;;;;4414202;32;20069;-65
2021/08/23 00:51:15;;;;;;;0.88;0.70;;;18.00;99.90;;;;;;4415614;32;20062;-65
2021/08/23 00:53:42;;;;;;;0.80;0.60;;;18.00;99.90;;;;;;4400948;32;20061;-66
2021/08/23 00:56:08;;;;;;;1.37;0.73;;;17.90;99.90;;;;;;4414686;32;20098;-65
2021/08/23 00:58:33;;;;;;;0.68;0.68;;;18.00;99.90;;;;;;4414650;32;20542;-64
2021/08/23 01:01:03;;;;;;;1.67;0.80;;;17.90;99.90;;;;;;4414651;32;20069;-64
2021/08/23 01:03:55;;;;;;;0.35;0.35;;;17.90;99.90;;;;;;4401912;32;20066;-64
2021/08/23 01:06:23;;;;;;;0.45;0.45;;;17.90;99.90;;;;;;4404640;32;20523;-64
2021/08/23 01:08:53;;;;;;;5.28;1.20;;;17.90;99.90;;;;;;4414512;32;20078;-65
2021/08/23 01:11:20;;;;;;;1.37;0.82;;;17.80;99.90;;;;;;4414024;32;20116;-64
2021/08/23 01:13:48;;;;;;;1.25;0.75;;;17.80;99.90;;;;;;4415519;32;20418;-65
2021/08/23 01:16:15;;;;;;;0.62;0.62;;;17.80;99.90;;;;;;4387409;32;20069;-64
2021/08/23 01:18:42;;;;;;;1.48;0.70;;;17.80;99.90;;;;;;4400997;32;20510;-65
2021/08/23 01:21:11;;;;;;;1.33;0.70;;;17.80;99.90;;;;;;4400960;32;20062;-64
2021/08/23 01:23:40;;;;;;;2.12;0.75;;;17.80;99.90;;;;;;4400970;32;20107;-64
2021/08/23 01:26:06;;;;;;;0.57;0.57;;;17.90;99.90;;;;;;4414967;32;20511;-64
2021/08/23 01:28:58;;;;;;;0.85;0.85;;;17.80;99.90;;;;;;4414473;32;20081;-65
2021/08/23 01:31:36;;;;;;;1.52;0.85;;;17.80;99.90;;;;;;4402922;32;20157;-64
2021/08/23 01:34:02;;;;;;;0.75;0.60;;;17.80;99.90;;;;;;4413793;32;20494;-64
2021/08/23 01:36:28;;;;;;;1.27;1.08;;;17.80;99.90;;;;;;4385029;32;20069;-64
2021/08/23 01:38:53;;;;;;;0.62;0.62;;;17.80;99.90;;;;;;4400309;32;20074;-64
2021/08/23 01:41:19;;;;;;;1.65;0.98;;;17.80;99.90;;;;;;4399531;32;20062;-64
2021/08/23 01:43:44;;;;;;;0.93;0.65;;;17.80;99.90;;;;;;4386622;32;20091;-65
2021/08/23 01:46:10;;;;;;;0.62;0.62;;;17.80;99.90;;;;;;4402154;32;20065;-63
2021/08/23 01:48:35;;;;;;;1.17;0.73;;;17.80;99.90;;;;;;4414142;32;20070;-64
2021/08/23 01:51:01;;;;;;;0.68;0.62;;;17.90;99.90;;;;;;4414574;32;20057;-65
2021/08/23 01:53:26;;;;;;;0.62;0.50;;;17.90;99.90;;;;;;4413772;32;20077;-64
2021/08/23 01:55:52;;;;;;;0.80;0.68;;;17.80;99.90;;;;;;4415291;32;20077;-65
2021/08/23 01:58:19;;;;;;;0.95;0.88;;;17.90;99.90;;;;;;4399909;32;20459;-65
2021/08/23 02:00:44;;;;;;;2.05;1.00;;;17.90;99.90;;;;;;4400275;32;20117;-65
2021/08/23 02:03:10;;;;;;;1.20;0.90;;;17.90;99.90;;;;;;4400361;32;20065;-66
2021/08/23 02:05:35;;;;;;;2.40;0.68;;;17.80;99.90;;;;;;4414418;32;20070;-64
2021/08/23 02:08:01;;;;;;;0.82;0.75;;;17.80;99.90;;;;;;4413865;32;20085;-64
2021/08/23 02:10:27;;;;;;;0.60;0.60;;;17.80;99.90;;;;;;4400354;32;20062;-64
2021/08/23 02:12:52;;;;;;;0.55;0.55;;;17.80;99.90;;;;;;4415197;32;20491;-65
2021/08/23 02:15:18;;;;;;;0.80;0.80;;;17.80;99.90;;;;;;4413706;32;20054;-64
2021/08/23 02:17:44;;;;;;;0.43;0.43;;;17.80;99.90;;;;;;4401496;32;20073;-64
2021/08/23 02:20:11;;;;;;;1.42;0.70;;;17.70;99.90;;;;;;4414400;32;20074;-64
2021/08/23 02:22:37;;;;;;;0.70;0.68;;;17.70;99.90;;;;;;4413484;32;20061;-64
2021/08/23 02:25:05;;;;;;;0.70;0.60;;;17.70;99.90;;;;;;4413388;32;20081;-65
2021/08/23 02:27:30;;;;;;;1.02;0.80;;;17.70;99.90;;;;;;4414414;32;20070;-64
2021/08/23 02:29:56;;;;;;;0.50;0.50;;;17.70;99.90;;;;;;4414589;32;20082;-64
2021/08/23 02:32:21;;;;;;;0.50;0.50;;;17.70;99.90;;;;;;4414239;32;20077;-64
2021/08/23 02:34:47;;;;;;;0.70;0.70;;;17.80;99.90;;;;;;4417355;32;20070;-64
2021/08/23 02:37:12;;;;;;;0.62;0.57;;;17.90;99.90;;;;;;4415931;32;20077;-63
2021/08/23 02:39:37;;;;;;;0.93;0.93;;;17.80;99.90;;;;;;4416209;32;20476;-64
2021/08/23 02:42:03;;;;;;;3.20;0.80;;;17.80;99.90;;;;;;4416213;32;20081;-65
2021/08/23 02:44:29;;;;;;;2.22;0.88;;;17.80;99.90;;;;;;4416866;32;20069;-64
2021/08/23 02:46:54;;;;;;;0.52;0.52;;;17.80;99.90;;;;;;4415284;32;20074;-65
2021/08/23 02:49:20;;;;;;;0.60;0.60;;;17.70;99.90;;;;;;4416646;32;20066;-64
2021/08/23 02:51:46;;;;;;;0.57;0.55;;;17.70;99.90;;;;;;4417028;32;20514;-65
2021/08/23 02:54:12;;;;;;;2.67;0.57;;;17.70;99.90;;;;;;4416794;32;20065;-64
2021/08/23 02:56:38;;;;;;;0.62;0.60;;;17.70;99.90;;;;;;4415887;32;20139;-65
2021/08/23 02:59:04;;;;;;;0.80;0.68;;;17.70;99.90;;;;;;4402677;32;20406;-64
2021/08/23 03:01:29;;;;;;;0.88;0.55;;;17.70;99.90;;;;;;4416376;32;20409;-63
2021/08/23 03:03:55;;;;;;;0.60;0.60;;;17.70;99.90;;;;;;4415831;32;20062;-65
2021/08/23 03:06:20;;;;;;;1.15;0.73;;;17.70;99.90;;;;;;4416629;32;20065;-64
2021/08/23 03:08:46;;;;;;;0.40;0.40;;;17.60;99.90;;;;;;4417105;32;20065;-65
2021/08/23 03:11:13;;;;;;;2.85;0.60;;;17.70;99.90;;;;;;4401795;32;20410;-65
2021/08/23 03:13:40;;;;;;;0.50;0.50;;;17.70;99.90;;;;;;4402490;32;20072;-65
2021/08/23 03:16:06;;;;;;;0.47;0.47;;;17.70;99.90;;;;;;4415574;32;20483;-64
2021/08/23 03:18:32;;;;;;;1.12;0.45;;;17.60;99.90;;;;;;4401925;32;20522;-65
2021/08/23 03:20:58;;;;;;;0.35;0.35;;;17.60;99.90;;;;;;4402042;32;20095;-64
2021/08/23 03:23:24;;;;;;;0.70;0.70;;;17.60;99.90;;;;;;4401870;32;20616;-64
2021/08/23 03:25:50;;;;;;;0.50;0.50;;;17.50;99.90;;;;;;4401721;32;20121;-64
2021/08/23 03:28:15;;;;;;;0.45;0.45;;;17.40;99.90;;;;;;4415942;32;20141;-64
2021/08/23 03:30:41;;;;;;;0.50;0.50;;;17.40;99.90;;;;;;4415534;32;20120;-64
2021/08/23 03:33:06;;;;;;;0.35;0.35;;;17.40;99.90;;;;;;4415684;32;20074;-63
2021/08/23 03:35:32;;;;;;;0.52;0.52;;;17.40;99.90;;;;;;4416332;32;20085;-64
2021/08/23 03:38:00;;;;;;;1.08;0.85;;;17.40;99.90;;;;;;4415311;32;20066;-64
2021/08/23 03:40:25;;;;;;;0.40;0.40;;;17.40;99.90;;;;;;4415391;32;20066;-65
2021/08/23 03:42:50;;;;;;;0.30;0.30;;;17.40;99.90;;;;;;4401582;32;20086;-64
2021/08/23 03:45:16;;;;;;;7.10;1.50;;;17.30;99.90;;;;;;4414649;32;20098;-64
2021/08/23 03:47:41;;;;;;;0.30;0.30;;;17.30;99.90;;;;;;4415432;32;20511;-66
2021/08/23 03:50:07;;;;;;;0.30;0.30;;;17.30;99.90;;;;;;4416414;32;20061;-65
2021/08/23 03:52:33;;;;;;;0.45;0.45;;;17.30;99.90;;;;;;4415564;32;20072;-64
2021/08/23 03:54:58;;;;;;;0.52;0.52;;;17.30;99.90;;;;;;4415937;32;20131;-66
2021/08/23 03:57:24;;;;;;;0.40;0.40;;;17.20;99.90;;;;;;4415100;32;20138;-65
2021/08/23 03:59:49;;;;;;;0.65;0.50;;;17.20;99.90;;;;;;4416134;32;20061;-65
2021/08/23 04:02:15;;;;;;;0.32;0.32;;;17.20;99.90;;;;;;4415717;32;20081;-64
2021/08/23 04:04:40;;;;;;;0.30;0.30;;;17.20;99.90;;;;;;4415902;32;20124;-64
2021/08/23 04:07:06;;;;;;;0.77;0.45;;;17.20;99.90;;;;;;4415932;32;20114;-64
2021/08/23 04:09:31;;;;;;;4.40;1.02;;;17.00;99.90;;;;;;4415493;32;20069;-64
2021/08/23 04:11:57;;;;;;;0.50;0.50;;;17.00;99.90;;;;;;4415009;32;20472;-63
2021/08/23 04:14:22;;;;;;;5.68;0.40;;;17.00;99.90;;;;;;4415115;32;20129;-64
2021/08/23 04:16:48;;;;;;;0.40;0.40;;;17.00;99.90;;;;;;4414146;32;20126;-64
2021/08/23 04:19:13;;;;;;;0.32;0.32;;;17.00;99.90;;;;;;4414572;32;20082;-64
2021/08/23 04:21:39;;;;;;;1.00;0.40;;;16.90;99.90;;;;;;4407160;32;20065;-65
2021/08/23 04:24:04;;;;;;;0.65;0.65;;;16.90;99.90;;;;;;4414405;32;20107;-65
2021/08/23 04:26:30;;;;;;;0.80;0.60;;;16.90;99.90;;;;;;4413340;32;20142;-66
2021/08/23 04:28:55;;;;;;;0.85;0.40;;;16.90;99.90;;;;;;4414557;32;20058;-64
2021/08/23 04:31:21;;;;;;;0.37;0.37;;;16.90;99.90;;;;;;4414532;32;20077;-65
2021/08/23 04:33:47;;;;;;;0.30;0.30;;;16.90;99.90;;;;;;4415939;32;20087;-65
2021/08/23 04:36:12;;;;;;;0.32;0.32;;;16.80;99.90;;;;;;4400141;32;20491;-65
2021/08/23 04:38:39;;;;;;;0.43;0.43;;;16.80;99.90;;;;;;4386878;32;20062;-64
2021/08/23 04:41:07;;;;;;;0.43;0.43;;;16.70;99.90;;;;;;4398700;32;20082;-65
2021/08/23 04:43:32;;;;;;;0.52;0.52;;;16.70;99.90;;;;;;4414541;32;20565;-64
2021/08/23 04:45:58;;;;;;;0.50;0.50;;;16.70;99.90;;;;;;4413661;32;20089;-65
2021/08/23 04:48:23;;;;;;;0.47;0.47;;;16.60;99.90;;;;;;4414471;32;20073;-64
2021/08/23 04:50:48;;;;;;;0.30;0.30;;;16.60;99.90;;;;;;4415206;32;20073;-64
2021/08/23 04:53:14;;;;;;;11.60;1.95;;;16.60;99.90;;;;;;4412675;32;20062;-64
2021/08/23 04:55:39;;;;;;;0.20;0.20;;;16.50;99.90;;;;;;4413466;32;20066;-64
2021/08/23 04:58:05;;;;;;;0.95;0.50;;;16.50;99.90;;;;;;4414984;32;20506;-64
2021/08/23 05:00:30;;;;;;;0.60;0.60;;;16.40;99.90;;;;;;4412661;32;20077;-64
2021/08/23 05:02:56;;;;;;;0.52;0.52;;;16.40;99.90;;;;;;4406787;32;20082;-64
2021/08/23 05:05:22;;;;;;;0.30;0.30;;;16.30;99.90;;;;;;4407051;32;20531;-64
2021/08/23 05:07:47;;;;;;;0.30;0.30;;;16.30;99.90;;;;;;4412338;32;20069;-64
2021/08/23 05:10:13;;;;;;;1.65;0.80;;;16.30;99.90;;;;;;4413258;32;20072;-65
2021/08/23 05:12:38;;;;;;;0.60;0.60;;;16.30;99.90;;;;;;4407518;32;20061;-64
2021/08/23 05:15:04;;;;;;;0.80;0.40;;;16.20;99.90;;;;;;4410809;32;20078;-64
2021/08/23 05:17:30;;;;;;;0.73;0.73;;;16.20;99.90;;;;;;4395951;32;20094;-64
2021/08/23 05:19:55;;;;;;;0.60;0.60;;;16.20;99.90;;;;;;4410572;32;20204;-64
2021/08/23 05:22:22;;;;;;;2.62;0.60;;;16.20;99.90;;;;;;4408387;32;20074;-65
2021/08/23 05:24:48;;;;;;;1.27;0.93;;;16.20;99.90;;;;;;4410710;32;20062;-64
2021/08/23 05:27:13;;;;;;;0.40;0.40;;;16.10;99.90;;;;;;4400673;32;20438;-64
2021/08/23 05:29:40;;;;;;;1.08;0.77;;;16.20;99.90;;;;;;4406911;32;20076;-64
2021/08/23 05:32:05;;;;;;;0.30;0.30;;;16.20;99.90;;;;;;4388854;32;20097;-64
2021/08/23 05:34:31;;;;;;;0.60;0.60;;;16.20;99.90;;;;;;4410939;32;20432;-65
2021/08/23 05:36:56;;;;;;;0.73;0.73;;;16.20;99.90;;;;;;4408888;32;20059;-64
2021/08/23 05:39:22;;;;;;;0.47;0.47;;;16.20;99.90;;;;;;4404783;32;20081;-65
2021/08/23 05:41:47;;;;;;;0.50;0.50;;;16.20;99.90;;;;;;4410450;32;20158;-65
2021/08/23 05:44:13;;;;;;;0.40;0.40;;;16.20;99.90;;;;;;4407362;32;20086;-63
2021/08/23 05:46:38;;;;;;;0.40;0.40;;;16.10;99.90;;;;;;4409012;32;20208;-65
2021/08/23 05:49:04;;;;;;;0.37;0.37;;;16.10;99.90;;;;;;4416539;32;20084;-63
2021/08/23 05:51:29;;;;;;;0.40;0.40;;;16.00;99.90;;;;;;4402325;32;20077;-65
2021/08/23 05:53:55;;;;;;;0.40;0.40;;;16.00;99.90;;;;;;4401574;32;20134;-64
2021/08/23 05:56:20;;;;;;;0.55;0.55;;;16.00;99.90;;;;;;4395298;32;20132;-66
2021/08/23 05:58:46;;;;;;;0.40;0.40;;;16.00;99.90;;;;;;4405236;32;20098;-64
2021/08/23 06:01:12;;;;;;;0.68;0.60;;;16.00;99.90;;;;;;4389843;32;20061;-64
2021/08/23 06:03:37;;;;;;;0.40;0.40;;;16.00;99.90;;;;;;4405677;32;20780;-66
2021/08/23 06:06:04;;;;;;;0.30;0.30;;;16.00;99.90;;;;;;4407774;32;20073;-65
2021/08/23 06:08:32;;;;;;;0.40;0.40;;;16.00;99.90;;;;;;4399574;32;20498;-66
2021/08/23 06:10:57;;;;;;;0.43;0.43;;;16.00;99.90;;;;;;4408926;32;20066;-66
2021/08/23 06:13:23;;;;;;;0.47;0.47;;;16.00;99.90;;;;;;4410767;32;20102;-64
2021/08/23 06:15:48;;;;;;;0.70;0.70;;;16.00;99.90;;;;;;4408761;32;20073;-65
2021/08/23 06:18:14;;;;;;;0.40;0.40;;;16.00;99.90;;;;;;4401592;32;20487;-65
2021/08/23 06:20:40;;;;;;;0.60;0.60;;;16.00;99.90;;;;;;4403514;32;20058;-65
2021/08/23 06:23:05;;;;;;;0.40;0.40;;;16.00;99.90;;;;;;4400089;32;74453;-64
2021/08/23 06:25:31;;;;;;;0.55;0.50;;;16.10;99.90;;;;;;4409526;32;20196;-65
2021/08/23 06:27:56;;;;;;;0.93;0.60;;;16.10;99.90;;;;;;4406345;32;20090;-65
2021/08/23 06:30:22;;;;;;;0.32;0.32;;;16.10;99.90;;;;;;4410568;32;20066;-64
2021/08/23 06:32:47;;;;;;;0.50;0.50;;;16.10;99.90;;;;;;4406896;32;20161;-65
2021/08/23 06:35:13;;;;;;;0.75;0.57;;;16.10;99.90;;;;;;4402886;32;20514;-64
2021/08/23 06:37:40;;;;;;;0.65;0.65;;;16.10;99.90;;;;;;4405250;32;20041;-63
2021/08/23 06:40:08;;;;;;;0.40;0.40;;;16.00;99.90;;;;;;4405903;32;20062;-65
2021/08/23 06:42:37;;;;;;;0.57;0.57;;;16.00;99.90;;;;;;4406221;32;20136;-64
2021/08/23 06:45:03;;;;;;;0.40;0.40;;;16.10;99.90;;;;;;4401143;32;20086;-65
2021/08/23 06:47:28;;;;;;;0.30;0.30;;;16.10;99.90;;;;;;4398585;32;20065;-65
2021/08/23 06:49:54;;;;;;;0.50;0.50;;;16.20;99.90;;;;;;4404030;32;20063;-64
2021/08/23 06:52:19;;;;;;;0.85;0.80;;;16.20;99.90;;;;;;4403150;32;20090;-64
2021/08/23 06:54:45;;;;;;;0.40;0.40;;;16.20;99.90;;;;;;4405045;32;20152;-64
2021/08/23 06:57:10;;;;;;;0.40;0.40;;;16.30;99.90;;;;;;4406299;32;20577;-64
2021/08/23 06:59:35;;;;;;;2.95;0.62;;;16.30;99.90;;;;;;4405345;32;20130;-63
2021/08/23 07:02:01;;;;;;;0.32;0.32;;;16.40;99.90;;;;;;4402050;32;20198;-63
2021/08/23 07:04:26;;;;;;;0.30;0.30;;;16.40;99.90;;;;;;4403532;32;20470;-63
2021/08/23 07:06:52;;;;;;;0.30;0.30;;;16.50;99.90;;;;;;4411614;32;20056;-63
2021/08/23 07:09:17;;;;;;;1.87;0.30;;;16.50;99.90;;;;;;4407099;32;20393;-63
2021/08/23 07:11:43;;;;;;;0.60;0.60;;;16.50;99.90;;;;;;4407230;32;20074;-63
2021/08/23 07:14:08;;;;;;;0.40;0.40;;;16.50;99.90;;;;;;4405626;32;20568;-63
2021/08/23 07:16:35;;;;;;;1.45;0.60;;;16.60;99.90;;;;;;4402740;32;20125;-64
2021/08/23 07:19:01;;;;;;;1.08;0.77;;;16.70;99.90;;;;;;4401920;32;20081;-63
2021/08/23 07:21:26;;;;;;;0.30;0.30;;;16.70;99.90;;;;;;4386258;32;20142;-64
2021/08/23 07:23:53;;;;;;;1.17;0.60;;;16.70;99.90;;;;;;4402528;32;20081;-64
2021/08/23 07:26:18;;;;;;;0.30;0.30;;;16.70;99.90;;;;;;4403631;32;20073;-64
2021/08/23 07:28:44;;;;;;;0.30;0.30;;;16.70;99.90;;;;;;4404256;32;20102;-64
2021/08/23 07:31:09;;;;;;;0.95;0.80;;;16.70;99.90;;;;;;4403595;32;20074;-64
2021/08/23 07:33:35;;;;;;;0.82;0.55;;;16.60;99.90;;;;;;4399263;32;20069;-64
2021/08/23 07:36:00;;;;;;;0.32;0.32;;;16.50;99.90;;;;;;4403761;32;20089;-64
2021/08/23 07:38:26;;;;;;;0.40;0.40;;;16.50;99.90;;;;;;4379799;32;20734;-64
2021/08/23 07:40:52;;;;;;;5.93;0.65;;;16.50;99.90;;;;;;4401885;32;20087;-64
2021/08/23 07:43:17;;;;;;;0.47;0.47;;;16.50;99.90;;;;;;4400043;32;20070;-64
2021/08/23 07:45:43;;;;;;;4.53;1.23;;;16.50;99.90;;;;;;4395754;32;21553;-63
2021/08/23 07:48:08;;;;;;;0.20;0.20;;;16.50;99.90;;;;;;4396594;32;20142;-64
2021/08/23 07:50:35;;;;;;;0.57;0.57;;;16.50;99.90;;;;;;4391002;32;20073;-64
2021/08/23 07:53:00;;;;;;;0.98;0.50;;;16.50;99.90;;;;;;4394040;32;21597;-64
2021/08/23 07:55:26;;;;;;;0.40;0.40;;;16.40;99.90;;;;;;4378376;32;20086;-63
2021/08/23 07:57:51;;;;;;;0.40;0.40;;;16.40;99.90;;;;;;4393199;32;20442;-63
2021/08/23 08:00:20;;;;;;;0.50;0.50;;;16.40;99.90;;;;;;4399257;32;20135;-63
2021/08/23 08:02:46;;;;;;;0.30;0.30;;;16.40;99.90;;;;;;4374912;32;20073;-63
2021/08/23 08:05:13;;;;;;;0.40;0.40;;;16.30;99.90;;;;;;4370536;32;20085;-63
2021/08/23 08:07:39;;;;;;;0.40;0.40;;;16.40;99.90;;;;;;4400220;32;20090;-63
2021/08/23 08:10:07;;;;;;;0.40;0.40;;;16.40;99.90;;;;;;4397571;32;20613;-63
2021/08/23 08:12:32;;;;;;;1.02;0.52;;;16.50;99.90;;;;;;4389885;32;20117;-63
2021/08/23 08:14:59;;;;;;;1.15;0.80;;;16.40;99.90;;;;;;4402225;32;20526;-63
2021/08/23 08:17:25;;;;;;;1.10;0.62;;;16.30;99.90;;;;;;4389086;32;20085;-62
2021/08/23 08:19:50;;;;;;;0.73;0.73;;;16.20;99.90;;;;;;4390197;32;20098;-62
2021/08/23 08:22:16;;;;;;;0.70;0.60;;;16.20;99.90;;;;;;4400148;32;20073;-63
2021/08/23 08:24:43;;;;;;;0.40;0.40;;;16.20;99.90;;;;;;4403075;32;20102;-64
2021/08/23 08:27:09;;;;;;;0.82;0.40;;;16.20;99.90;;;;;;4384891;32;20115;-63
2021/08/23 08:29:34;;;;;;;2.28;0.55;;;16.20;99.90;;;;;;4388322;32;20065;-63
2021/08/23 08:32:00;;;;;;;1.55;0.88;;;16.10;99.90;;;;;;4400759;32;20301;-64
2021/08/23 08:34:28;;;;;;;0.32;0.32;;;16.00;99.90;;;;;;4400984;32;20078;-62
2021/08/23 08:36:53;;;;;;;0.50;0.50;;;16.10;99.90;;;;;;4398921;32;20572;-63
2021/08/23 08:39:19;;;;;;;0.40;0.40;;;16.20;99.90;;;;;;4396830;32;20069;-63
2021/08/23 08:41:44;;;;;;;1.25;0.43;;;16.10;99.90;;;;;;4397734;32;20854;-64
2021/08/23 08:44:10;;;;;;;0.40;0.40;;;16.10;99.90;;;;;;4394345;32;20121;-64
2021/08/23 08:46:36;;;;;;;0.28;0.28;;;16.10;99.90;;;;;;4402877;32;20071;-61
2021/08/23 08:49:04;;;;;;;0.60;0.60;;;16.00;99.90;;;;;;4397298;32;20188;-61
2021/08/23 08:51:30;;;;;;;0.88;0.60;;;16.00;99.90;;;;;;4380950;32;20550;-63
2021/08/23 08:53:56;;;;;;;3.20;0.40;;;16.00;99.90;;;;;;4388680;32;20058;-63
2021/08/23 08:56:21;;;;;;;0.40;0.40;;;15.90;99.90;;;;;;4400812;32;20090;-63
2021/08/23 08:58:46;;;;;;;0.30;0.30;;;15.90;99.90;;;;;;4405162;32;20124;-64
2021/08/23 09:01:12;;;;;;;0.40;0.40;;;15.90;99.90;;;;;;4404343;32;20093;-62
2021/08/23 09:03:45;;;;;;;1.92;0.82;;;15.90;99.90;;;;;;4401714;32;20081;-63
2021/08/23 09:06:10;;;;;;;0.52;0.50;;;15.90;99.90;;;;;;4397571;32;20485;-63
2021/08/23 09:08:46;;;;;;;0.40;0.40;;;15.90;99.90;;;;;;4400700;32;20066;-62
2021/08/23 09:11:15;;;;;;;1.77;0.50;;;15.90;99.90;;;;;;4389497;32;20445;-63
2021/08/23 09:13:46;;;;;;;0.30;0.30;;;15.90;99.90;;;;;;4382836;32;20077;-62
2021/08/23 09:16:12;;;;;;;0.50;0.50;;;15.90;99.90;;;;;;4397190;32;20097;-62
2021/08/23 09:18:37;;;;;;;0.50;0.50;;;15.90;99.90;;;;;;4400295;32;20347;-62
2021/08/23 09:21:05;;;;;;;0.55;0.55;;;15.90;99.90;;;;;;4399901;32;21706;-61
2021/08/23 09:23:36;;;;;;;1.05;0.95;;;15.90;99.90;;;;;;4394237;32;20744;-59
2021/08/23 09:26:07;;;;;;;0.40;0.40;;;15.90;99.90;;;;;;4380782;32;20283;-60
2021/08/23 09:28:32;;;;;;;;;;;15.90;99.90;;;;;;4389938;32;20701;-59
2021/08/23 09:30:58;;;;;;;4.03;0.50;;;16.00;99.90;;;;;;4393628;32;19957;-63
2021/08/23 09:33:24;;;;;;;0.43;0.43;;;16.00;99.90;;;;;;4396402;32;20159;-63
2021/08/23 09:35:52;;;;;;;0.20;0.20;;;16.10;99.90;;;;;;4383847;32;20590;-62
2021/08/23 09:38:18;;;;;;;0.40;0.40;;;16.20;99.90;;;;;;4383071;32;20574;-63
2021/08/23 09:40:44;;;;;;;0.50;0.50;;;16.20;99.90;;;;;;4384656;32;20114;-63
2021/08/23 09:43:15;;;;;;;3.58;0.77;;;16.30;99.90;;;;;;4382035;32;20998;-62
2021/08/23 09:45:47;;;;;;;;;;;16.40;99.90;;;;;;4386024;32;20057;-63
2021/08/23 09:48:15;;;;;;;0.30;0.30;;;16.50;99.90;;;;;;4392943;32;19980;-63
2021/08/23 09:50:43;;;;;;;0.30;0.30;;;16.50;99.90;;;;;;4390576;32;22092;-62
2021/08/23 09:53:11;;;;;;;0.40;0.40;;;16.50;99.90;;;;;;4398287;32;20153;-62
2021/08/23 09:55:39;;;;;;;0.55;0.55;;;16.60;99.90;;;;;;4382679;32;20093;-63
2021/08/23 09:58:07;;;;;;;0.40;0.40;;;16.60;99.90;;;;;;4385897;32;20094;-62
2021/08/23 10:00:33;;;;;;;0.68;0.68;;;16.60;99.90;;;;;;4397874;32;20169;-62
2021/08/23 10:03:02;;;;;;;0.75;0.47;;;16.60;99.90;;;;;;4380322;32;20085;-62
2021/08/23 10:05:29;;;;;;;0.30;0.30;;;16.60;99.90;;;;;;4396196;32;20129;-62
2021/08/23 10:07:54;;;;;;;0.20;0.20;;;16.60;99.90;;;;;;4383044;32;20077;-62
2021/08/23 10:10:21;;;;;;;0.30;0.30;;;16.60;99.90;;;;;;4400639;32;20077;-62
2021/08/23 10:12:47;;;;;;;0.40;0.40;;;16.60;99.90;;;;;;4394311;32;20077;-63
2021/08/23 10:15:13;;;;;;;0.40;0.40;;;16.60;99.90;;;;;;4400301;32;20081;-63
2021/08/23 10:17:38;;;;;;;0.40;0.40;;;16.60;99.90;;;;;;4384732;32;20140;-62
2021/08/23 10:20:06;;;;;;;0.37;0.37;;;16.60;99.90;;;;;;4394363;32;20673;-62
2021/08/23 10:22:52;;;;;;;0.40;0.40;;;16.70;99.90;;;;;;4400512;32;20543;-62
2021/08/23 10:25:18;;;;;;;0.35;0.35;;;16.70;99.90;;;;;;4400899;32;20057;-72
2021/08/23 10:27:44;;;;;;;0.60;0.60;;;16.80;99.90;;;;;;4400768;32;20431;-72
2021/08/23 10:30:22;;;;;;;0.40;0.40;;;16.70;99.90;;;;;;4406591;32;20164;-73
2021/08/23 10:32:47;;;;;;;0.62;0.47;;;16.70;99.90;;;;;;4401538;32;20132;-72
2021/08/23 10:35:23;;;;;;;0.28;0.28;;;16.70;99.90;;;;;;4405195;32;20069;-72
2021/08/23 10:37:50;;;;;;;2.12;0.50;;;16.70;99.90;;;;;;4402219;32;20078;-73
2021/08/23 10:40:22;;;;;;;0.37;0.37;;;16.70;99.90;;;;;;4403552;32;20207;-73
2021/08/23 10:42:48;;;;;;;0.40;0.40;;;16.80;99.90;;;;;;4400656;32;20133;-74
2021/08/23 10:45:17;;;;;;;0.40;0.40;;;16.80;99.90;;;;;;4404776;32;20089;-72
2021/08/23 10:47:44;;;;;;;0.47;0.47;;;16.80;99.90;;;;;;4399586;32;20113;-73
2021/08/23 10:50:21;;;;;;;0.62;0.62;;;16.80;99.90;;;;;;4386701;32;20148;-74
2021/08/23 10:52:48;;;;;;;0.73;0.68;;;16.80;99.90;;;;;;4385248;32;20067;-73
2021/08/23 10:55:23;;;;;;;0.37;0.37;;;16.80;99.90;;;;;;4383579;32;20074;-74
2021/08/23 10:57:49;;;;;;;0.40;0.40;;;16.80;99.90;;;;;;4387815;32;20178;-73
2021/08/23 11:00:17;;;;;;;0.20;0.20;;;16.80;99.90;;;;;;4384667;32;20110;-73
2021/08/23 11:02:42;;;;;;;0.30;0.30;;;16.70;99.90;;;;;;4389716;32;20669;-73
2021/08/23 11:05:14;;;;;;;0.20;0.20;;;16.60;99.90;;;;;;4387335;32;20086;-73
2021/08/23 11:07:42;;;;;;;0.30;0.30;;;16.50;99.90;;;;;;4387476;32;20119;-73
2021/08/23 11:10:17;;;;;;;0.30;0.30;;;16.40;99.90;;;;;;4386683;32;20547;-73
2021/08/23 11:12:50;;;;;;;0.82;0.75;;;16.40;99.90;;;;;;4393429;32;20150;-73
2021/08/23 11:15:27;;;;;;;0.37;0.37;;;16.40;99.90;;;;;;4389457;32;20070;-72
2021/08/23 11:17:55;;;;;;;0.32;0.32;;;16.40;99.90;;;;;;4393472;32;20108;-73
2021/08/23 11:20:23;;;;;;;0.20;0.20;;;16.30;99.90;;;;;;4388700;32;20121;-73
2021/08/23 11:22:52;;;;;;;0.30;0.30;;;16.30;99.90;;;;;;4389831;32;20066;-73
2021/08/23 11:25:26;;;;;;;0.32;0.32;;;16.30;99.90;;;;;;4388011;32;20102;-74
2021/08/23 11:27:51;;;;;;;0.60;0.60;;;16.30;99.90;;;;;;4389988;32;21634;-75
2021/08/23 11:30:34;;;;;;;1.10;0.77;;;16.30;99.90;;;;;;4390272;32;20121;-73
2021/08/23 11:33:00;;;;;;;0.40;0.40;;;16.30;99.90;;;;;;4391310;32;20167;-74
2021/08/23 11:35:26;;;;;;;0.40;0.40;;;16.30;99.90;;;;;;4388763;32;20102;-73
2021/08/23 11:37:55;;;;;;;2.72;0.65;;;16.20;99.90;;;;;;4390848;32;20085;-73
2021/08/23 11:40:21;;;;;;;0.30;0.30;;;16.30;99.90;;;;;;4385673;32;20119;-73
2021/08/23 11:42:50;;;;;;;0.30;0.30;;;16.40;99.90;;;;;;4390833;32;20140;-73
2021/08/23 11:45:21;;;;;;;0.35;0.35;;;16.50;99.90;;;;;;4378003;32;20955;-74
2021/08/23 11:47:50;;;;;;;3.40;0.43;;;16.60;99.90;;;;;;4381701;32;20111;-73
2021/08/23 11:50:18;;;;;;;0.40;0.40;;;16.60;99.90;;;;;;4386280;32;20535;-72
2021/08/23 11:52:44;;;;;;;0.30;0.30;;;16.70;99.90;;;;;;4385677;32;20443;-72
2021/08/23 11:55:10;;;;;;;0.70;0.47;;;16.70;99.90;;;;;;4388510;32;20173;-74
2021/08/23 11:57:36;;;;;;;0.30;0.30;;;16.80;99.90;;;;;;4383839;32;20117;-75
2021/08/23 12:00:04;;;;;;;0.57;0.57;;;16.90;99.90;;;;;;4386659;32;20105;-75
2021/08/23 12:02:32;;;;;;;0.25;0.25;;;17.00;99.90;;;;;;4385289;32;20101;-73
2021/08/23 12:05:10;;;;;;;0.35;0.35;;;17.10;99.90;;;;;;4389755;32;20176;-74
2021/08/23 12:07:47;;;;;;;0.85;0.85;;;17.20;99.90;;;;;;4390921;32;20126;-73
2021/08/23 12:10:30;;;;;;;12.13;0.43;;;17.30;99.90;;;;;;4389699;32;20078;-72
2021/08/23 12:13:15;;;;;;;0.30;0.30;;;17.40;99.90;;;;;;4390087;32;21793;-73
2021/08/23 12:16:02;;;;;;;0.22;0.22;;;17.60;99.90;;;;;;4394284;32;20065;-72
2021/08/23 12:18:34;;;;;;;0.50;0.50;;;17.60;99.90;;;;;;4378661;32;20062;-72
2021/08/23 12:21:06;;;;;;;0.20;0.20;;;17.70;99.90;;;;;;4392467;32;20385;-73
2021/08/23 12:23:53;;;;;;;0.37;0.37;;;17.80;99.90;;;;;;4386077;32;20367;-72
2021/08/23 12:26:37;;;;;;;0.30;0.30;;;17.90;99.90;;;;;;4357061;32;20562;-72
2021/08/23 12:29:14;;;;;;;0.93;0.70;;;17.90;99.90;;;;;;4366954;32;20393;-72
2021/08/23 12:32:07;;;;;;;4.93;1.27;;;17.90;99.90;;;;;;4368337;32;20406;-71
2021/08/23 12:34:37;;;;;;;0.40;0.40;;;17.90;99.90;;;;;;4355634;32;20185;-72
2021/08/23 12:37:03;;;;;;;0.40;0.40;;;18.00;99.90;;;;;;4385607;32;20078;-71
2021/08/23 12:39:30;;;;;;;0.20;0.20;;;18.00;99.90;;;;;;4394195;32;20578;-72
2021/08/23 12:41:58;;;;;;;0.40;0.40;;;18.10;99.90;;;;;;4393349;32;20058;-73
2021/08/23 12:44:24;;;;;;;0.40;0.40;;;18.10;99.90;;;;;;4387788;32;20095;-74
2021/08/23 12:46:50;;;;;;;0.65;0.50;;;18.10;99.90;;;;;;4385603;32;20066;-73
2021/08/23 12:49:17;;;;;;;0.30;0.30;;;18.20;99.90;;;;;;4392575;32;20081;-73